createdAt,value
2022-08-12T00:01:11.657Z,21.10
2022-08-12T00:03:57.413Z,20.90
2022-08-12T00:06:44.301Z,20.90
2022-08-12T00:09:29.934Z,20.80
2022-08-12T00:12:15.435Z,20.80
2022-08-12T00:15:03.906Z,20.70
2022-08-12T00:17:51.007Z,20.50
2022-08-12T00:20:36.694Z,20.40
2022-08-12T00:23:24.169Z,20.30
2022-08-12T00:26:22.975Z,20.30
2022-08-12T00:29:12.804Z,20.20
2022-08-12T00:32:00.271Z,20.10
2022-08-12T00:34:49.078Z,20.00
2022-08-12T00:37:35.977Z,19.90
2022-08-12T00:40:24.019Z,19.70
2022-08-12T00:42:53.016Z,19.50
2022-08-12T00:45:20.184Z,19.40
2022-08-12T00:47:48.783Z,19.30
2022-08-12T00:50:19.841Z,19.30
2022-08-12T00:52:49.327Z,19.30
2022-08-12T00:55:17.706Z,19.20
2022-08-12T00:57:48.536Z,19.20
2022-08-12T01:00:25.882Z,19.10
2022-08-12T01:02:58.093Z,19.20
2022-08-12T01:05:45.211Z,19.20
2022-08-12T01:08:30.550Z,19.10
2022-08-12T01:11:16.985Z,19.10
2022-08-12T01:13:49.700Z,19.00
2022-08-12T01:16:22.477Z,18.90
2022-08-12T01:18:51.760Z,18.90
2022-08-12T01:21:52.359Z,18.80
2022-08-12T01:24:47.358Z,18.80
2022-08-12T01:27:15.929Z,18.70
2022-08-12T01:29:44.984Z,18.60
2022-08-12T01:32:15.093Z,18.50
2022-08-12T01:35:03.356Z,18.40
2022-08-12T01:37:36.781Z,18.40
2022-08-12T01:40:35.836Z,18.40
2022-08-12T01:42:55.584Z,18.30
2022-08-12T01:45:25.649Z,18.30
2022-08-12T01:48:33.770Z,18.20
2022-08-12T01:52:15.799Z,18.10
2022-08-12T01:54:40.525Z,18.10
2022-08-12T01:57:58.827Z,17.90
2022-08-12T02:00:54.902Z,17.90
2022-08-12T02:04:20.159Z,17.90
2022-08-12T02:07:29.307Z,18.00
2022-08-12T02:10:49.523Z,17.90
2022-08-12T02:14:07.414Z,17.80
2022-08-12T02:16:59.345Z,17.70
2022-08-12T02:20:13.875Z,17.60
2022-08-12T02:22:45.110Z,17.60
2022-08-12T02:25:43.454Z,17.60
2022-08-12T02:28:11.457Z,17.50
2022-08-12T02:30:42.298Z,17.50
2022-08-12T02:33:10.964Z,17.60
2022-08-12T02:35:39.801Z,17.50
2022-08-12T02:38:12.591Z,17.40
2022-08-12T02:40:43.141Z,17.40
2022-08-12T02:43:15.840Z,17.30
2022-08-12T02:45:52.329Z,17.20
2022-08-12T02:48:30.310Z,17.10
2022-08-12T02:51:01.932Z,17.10
2022-08-12T02:53:30.498Z,17.10
2022-08-12T02:56:05.659Z,17.20
2022-08-12T02:58:35.481Z,17.10
2022-08-12T03:01:05.141Z,17.00
2022-08-12T03:03:34.444Z,17.00
2022-08-12T03:06:03.503Z,17.00
2022-08-12T03:08:35.119Z,16.90
2022-08-12T03:11:21.419Z,16.90
2022-08-12T03:13:58.943Z,16.90
2022-08-12T03:16:30.229Z,16.80
2022-08-12T03:19:00.589Z,16.80
2022-08-12T03:21:52.925Z,16.80
2022-08-12T03:24:18.587Z,16.70
2022-08-12T03:26:48.992Z,16.70
2022-08-12T03:29:17.729Z,16.60
2022-08-12T03:31:46.808Z,16.60
2022-08-12T03:34:23.581Z,16.60
2022-08-12T03:36:55.579Z,16.60
2022-08-12T03:39:41.495Z,16.60
2022-08-12T03:42:36.704Z,16.70
2022-08-12T03:45:52.006Z,16.70
2022-08-12T03:48:39.045Z,16.80
2022-08-12T03:51:25.019Z,16.80
2022-08-12T03:54:11.594Z,16.80
2022-08-12T03:56:58.066Z,16.80
2022-08-12T03:59:43.746Z,16.70
2022-08-12T04:02:17.881Z,16.60
2022-08-12T04:04:46.565Z,16.60
2022-08-12T04:07:16.395Z,16.50
2022-08-12T04:09:45.807Z,16.40
2022-08-12T04:12:32.784Z,16.40
2022-08-12T04:15:04.492Z,16.50
2022-08-12T04:17:32.566Z,16.50
2022-08-12T04:20:02.541Z,16.50
2022-08-12T04:22:31.187Z,16.50
2022-08-12T04:25:02.939Z,16.50
2022-08-12T04:27:32.063Z,16.50
2022-08-12T04:30:29.821Z,16.50
2022-08-12T04:32:50.597Z,16.60
2022-08-12T04:35:17.929Z,16.90
2022-08-12T04:37:59.780Z,17.10
2022-08-12T04:40:31.744Z,17.30
2022-08-12T04:43:01.483Z,17.60
2022-08-12T04:45:30.159Z,17.80
2022-08-12T04:47:57.432Z,18.00
2022-08-12T04:50:34.686Z,18.20
2022-08-12T04:53:08.342Z,18.40
2022-08-12T04:55:38.135Z,18.60
2022-08-12T04:58:06.196Z,18.80
2022-08-12T05:00:45.846Z,19.00
2022-08-12T05:03:14.636Z,19.20
2022-08-12T05:05:43.833Z,19.40
2022-08-12T05:08:16.398Z,19.50
2022-08-12T05:10:48.432Z,19.60
2022-08-12T05:13:21.541Z,19.70
2022-08-12T05:16:02.673Z,19.80
2022-08-12T05:18:31.031Z,20.10
2022-08-12T05:21:01.351Z,20.20
2022-08-12T05:23:28.760Z,20.50
2022-08-12T05:25:57.123Z,20.80
2022-08-12T05:28:27.237Z,21.00
2022-08-12T05:30:55.422Z,21.10
2022-08-12T05:33:26.691Z,21.30
2022-08-12T05:35:53.832Z,21.30
2022-08-12T05:38:39.237Z,21.40
2022-08-12T05:41:19.177Z,21.40
2022-08-12T05:43:51.186Z,21.70
2022-08-12T05:46:19.516Z,21.90
2022-08-12T05:48:47.217Z,22.00
2022-08-12T05:51:14.292Z,22.10
2022-08-12T05:53:42.149Z,22.10
2022-08-12T05:56:24.122Z,22.10
2022-08-12T05:58:52.408Z,22.10
2022-08-12T06:02:10.884Z,22.50
2022-08-12T06:04:09.513Z,23.00
2022-08-12T06:06:44.099Z,23.30
2022-08-12T06:09:11.565Z,23.70
2022-08-12T06:11:41.530Z,23.90
2022-08-12T06:14:28.716Z,23.80
2022-08-12T06:16:59.893Z,24.00
2022-08-12T06:20:26.591Z,24.00
2022-08-12T06:22:16.681Z,24.00
2022-08-12T06:24:43.639Z,24.20
2022-08-12T06:27:10.664Z,24.70
2022-08-12T06:30:10.300Z,25.00
2022-08-12T06:32:29.838Z,24.80
2022-08-12T06:35:26.657Z,25.20
2022-08-12T06:37:56.415Z,25.50
2022-08-12T06:40:44.269Z,25.70
2022-08-12T06:43:14.261Z,25.90
2022-08-12T06:45:47.428Z,26.00
2022-08-12T06:48:14.402Z,25.80
2022-08-12T06:50:42.741Z,25.80
2022-08-12T06:53:11.461Z,25.90
2022-08-12T06:55:56.737Z,25.90
2022-08-12T06:58:25.940Z,26.30
2022-08-12T07:00:54.734Z,26.50
2022-08-12T07:03:27.668Z,26.40
2022-08-12T07:06:03.818Z,26.50
2022-08-12T07:08:34.636Z,25.90
2022-08-12T07:11:04.092Z,26.00
2022-08-12T07:14:02.629Z,26.00
2022-08-12T07:16:48.998Z,25.70
2022-08-12T07:19:16.695Z,25.60
2022-08-12T07:21:59.630Z,26.00
2022-08-12T07:24:29.799Z,26.60
2022-08-12T07:26:57.062Z,27.00
2022-08-12T07:29:59.458Z,27.40
2022-08-12T07:32:13.260Z,27.50
2022-08-12T07:34:43.472Z,27.70
2022-08-12T07:37:10.420Z,27.70
2022-08-12T07:39:37.478Z,27.90
2022-08-12T07:42:18.583Z,27.70
2022-08-12T07:44:46.409Z,28.20
2022-08-12T07:47:18.764Z,28.20
2022-08-12T07:50:05.404Z,27.90
2022-08-12T07:52:33.178Z,27.80
2022-08-12T07:55:00.896Z,28.20
2022-08-12T07:57:27.802Z,28.50
2022-08-12T07:59:55.604Z,28.80
2022-08-12T08:02:26.753Z,28.80
2022-08-12T08:04:59.620Z,28.90
2022-08-12T08:07:27.790Z,28.90
2022-08-12T08:09:59.497Z,29.70
2022-08-12T08:12:47.432Z,29.70
2022-08-12T08:15:15.772Z,30.10
2022-08-12T08:18:06.418Z,30.30
2022-08-12T08:20:38.081Z,29.70
2022-08-12T08:23:08.742Z,30.20
2022-08-12T08:25:38.858Z,30.80
2022-08-12T08:28:12.012Z,31.10
2022-08-12T08:30:42.607Z,31.90
2022-08-12T08:33:20.066Z,32.30
2022-08-12T08:35:54.385Z,31.80
2022-08-12T08:38:31.898Z,31.40
2022-08-12T08:42:17.156Z,31.70
2022-08-12T08:44:06.033Z,32.40
2022-08-12T08:46:38.241Z,32.60
2022-08-12T08:49:06.167Z,32.90
2022-08-12T08:51:33.656Z,33.00
2022-08-12T08:54:00.896Z,33.20
2022-08-12T08:56:30.759Z,33.50
2022-08-12T08:58:58.071Z,33.50
2022-08-12T09:01:26.541Z,33.00
2022-08-12T09:05:09.367Z,32.50
2022-08-12T09:07:00.238Z,32.80
2022-08-12T09:12:54.240Z,33.90
2022-08-12T09:15:35.650Z,33.50
2022-08-12T09:20:55.097Z,32.50
2022-08-12T09:26:09.705Z,32.40
2022-08-12T09:28:37.020Z,32.50
2022-08-12T09:32:04.292Z,32.30
2022-08-12T09:34:28.313Z,32.00
2022-08-12T09:36:57.731Z,32.30
2022-08-12T09:40:01.871Z,32.80
2022-08-12T09:42:54.207Z,33.40
2022-08-12T09:46:14.125Z,33.70
2022-08-12T09:48:19.942Z,34.80
2022-08-12T09:50:51.607Z,34.00
2022-08-12T09:53:29.236Z,33.30
2022-08-12T09:56:59.028Z,33.10
2022-08-12T09:58:59.774Z,33.30
2022-08-12T10:01:35.215Z,33.00
2022-08-12T10:04:19.432Z,33.60
2022-08-12T10:06:55.330Z,33.20
2022-08-12T10:09:28.470Z,33.10
2022-08-12T10:12:31.617Z,33.10
2022-08-12T10:15:02.689Z,33.40
2022-08-12T10:17:29.837Z,33.20
2022-08-12T10:19:59.451Z,32.90
2022-08-12T10:22:39.197Z,33.20
2022-08-12T10:26:33.987Z,33.00
2022-08-12T10:28:39.046Z,32.40
2022-08-12T10:31:06.693Z,33.00
2022-08-12T10:34:05.221Z,34.50
2022-08-12T10:36:40.749Z,34.30
2022-08-12T10:39:44.266Z,33.40
2022-08-12T10:42:29.420Z,32.80
2022-08-12T10:45:01.115Z,32.80
2022-08-12T10:48:07.160Z,32.60
2022-08-12T10:50:33.537Z,32.30
2022-08-12T10:53:09.308Z,31.80
2022-08-12T10:55:36.513Z,31.90
2022-08-12T10:58:27.698Z,32.50
2022-08-12T11:00:55.425Z,32.40
2022-08-12T11:04:35.659Z,31.80
2022-08-12T11:07:09.934Z,31.20
2022-08-12T11:09:12.433Z,31.60
2022-08-12T11:12:35.593Z,31.80
2022-08-12T11:14:49.653Z,31.80
2022-08-12T11:17:34.515Z,31.40
2022-08-12T11:20:05.629Z,31.60
2022-08-12T11:22:32.742Z,31.80
2022-08-12T11:24:59.745Z,31.90
2022-08-12T11:27:29.474Z,32.00
2022-08-12T11:30:03.737Z,32.10
2022-08-12T11:32:38.613Z,31.90
2022-08-12T11:35:07.323Z,31.50
2022-08-12T11:37:37.829Z,31.60
2022-08-12T11:40:23.048Z,32.00
2022-08-12T11:42:50.345Z,31.80
2022-08-12T11:45:19.694Z,31.90
2022-08-12T11:47:46.825Z,32.00
2022-08-12T11:50:19.559Z,31.70
2022-08-12T11:52:55.746Z,31.80
2022-08-12T11:55:25.014Z,31.80
2022-08-12T11:58:19.685Z,31.90
2022-08-12T12:03:43.843Z,32.10
2022-08-12T12:06:17.975Z,31.50
2022-08-12T12:08:51.059Z,31.00
2022-08-12T12:11:19.447Z,30.80
2022-08-12T12:14:07.444Z,31.20
2022-08-12T12:16:38.102Z,31.80
2022-08-12T12:19:06.491Z,31.90
2022-08-12T12:21:48.063Z,32.40
2022-08-12T12:24:21.307Z,31.90
2022-08-12T12:27:00.602Z,32.50
2022-08-12T12:30:18.624Z,32.40
2022-08-12T12:32:28.916Z,32.30
2022-08-12T12:35:13.823Z,33.00
2022-08-12T12:38:05.458Z,32.30
2022-08-12T12:40:43.879Z,31.70
2022-08-12T12:43:12.474Z,32.00
2022-08-12T12:45:44.559Z,31.60
2022-08-12T12:48:18.480Z,31.90
2022-08-12T12:50:51.653Z,32.40
2022-08-12T12:54:08.095Z,32.30
2022-08-12T12:56:18.106Z,32.70
2022-08-12T12:58:45.080Z,32.40
2022-08-12T13:01:25.412Z,32.70
2022-08-12T13:04:02.114Z,32.40
2022-08-12T13:06:31.452Z,31.90
2022-08-12T13:09:03.129Z,32.20
2022-08-12T13:11:41.298Z,33.00
2022-08-12T13:14:28.876Z,33.20
2022-08-12T13:17:03.651Z,32.70
2022-08-12T13:19:46.584Z,32.70
2022-08-12T13:22:20.511Z,32.20
2022-08-12T13:24:55.654Z,32.20
2022-08-12T13:27:35.503Z,31.80
2022-08-12T13:30:11.147Z,32.30
2022-08-12T13:32:40.053Z,32.40
2022-08-12T13:35:20.409Z,31.70
2022-08-12T13:37:56.929Z,31.40
2022-08-12T13:40:25.272Z,31.70
2022-08-12T13:42:57.757Z,31.90
2022-08-12T13:45:26.389Z,32.20
2022-08-12T13:48:00.276Z,32.00
2022-08-12T13:50:47.713Z,31.70
2022-08-12T13:53:24.322Z,31.80
2022-08-12T13:55:59.839Z,31.50
2022-08-12T13:58:30.807Z,31.20
2022-08-12T14:00:58.718Z,30.90
2022-08-12T14:03:28.044Z,31.10
2022-08-12T14:05:59.472Z,31.30
2022-08-12T14:08:34.627Z,31.80
2022-08-12T14:11:02.344Z,31.00
2022-08-12T14:14:03.229Z,30.70
2022-08-12T14:16:48.598Z,30.30
2022-08-12T14:19:22.447Z,30.10
2022-08-12T14:22:01.652Z,30.00
2022-08-12T14:24:35.524Z,30.10
2022-08-12T14:27:09.151Z,30.00
2022-08-12T14:30:05.931Z,30.00
2022-08-12T14:32:31.320Z,29.90
2022-08-12T14:34:58.338Z,30.00
2022-08-12T14:37:56.898Z,29.80
2022-08-12T14:40:18.570Z,29.80
2022-08-12T14:42:49.701Z,29.90
2022-08-12T14:45:22.952Z,29.90
2022-08-12T14:47:53.724Z,29.80
2022-08-12T14:50:40.945Z,29.90
2022-08-12T14:55:36.188Z,29.90
2022-08-12T14:59:20.386Z,29.90
2022-08-12T15:01:52.039Z,29.90
2022-08-12T15:04:29.091Z,30.00
2022-08-12T15:06:56.339Z,30.00
2022-08-12T15:09:29.063Z,29.90
2022-08-12T15:12:03.848Z,29.90
2022-08-12T15:14:32.026Z,29.90
2022-08-12T15:17:01.650Z,29.90
2022-08-12T15:20:27.930Z,29.80
2022-08-12T15:22:38.383Z,29.90
2022-08-12T15:25:07.372Z,29.90
2022-08-12T15:28:05.619Z,29.80
2022-08-12T15:30:31.642Z,29.80
2022-08-12T15:32:59.175Z,29.70
2022-08-12T15:35:31.391Z,29.70
2022-08-12T15:38:20.629Z,29.70
2022-08-12T15:40:51.309Z,29.70
2022-08-12T15:43:51.543Z,29.80
2022-08-12T15:46:07.902Z,29.70
2022-08-12T15:48:44.182Z,29.70
2022-08-12T15:51:58.951Z,29.70
2022-08-12T15:54:30.859Z,29.70
2022-08-12T15:57:05.603Z,29.70
2022-08-12T15:59:59.961Z,29.70
2022-08-12T16:02:20.565Z,29.70
2022-08-12T16:04:50.500Z,29.60
2022-08-12T16:07:29.648Z,29.60
2022-08-12T16:10:06.053Z,29.70
2022-08-12T16:12:43.316Z,29.60
2022-08-12T16:15:23.111Z,29.60
2022-08-12T16:18:15.252Z,29.50
2022-08-12T16:20:42.095Z,29.60
2022-08-12T16:23:26.461Z,29.70
2022-08-12T16:26:14.175Z,29.60
2022-08-12T16:28:47.473Z,29.70
2022-08-12T16:31:22.767Z,29.60
2022-08-12T16:33:58.633Z,29.60
2022-08-12T16:36:30.845Z,29.60
2022-08-12T16:39:01.294Z,29.50
2022-08-12T16:41:33.543Z,29.50
2022-08-12T16:44:06.446Z,29.50
2022-08-12T16:46:36.338Z,29.50
2022-08-12T16:49:13.050Z,29.50
2022-08-12T16:51:46.780Z,29.60
2022-08-12T16:54:20.108Z,29.50
2022-08-12T16:56:57.768Z,29.50
2022-08-12T16:59:30.800Z,29.50
2022-08-12T17:01:58.566Z,29.50
2022-08-12T17:04:27.380Z,29.40
2022-08-12T17:06:54.585Z,29.40
2022-08-12T17:09:22.005Z,29.30
2022-08-12T17:11:50.138Z,29.30
2022-08-12T17:14:20.388Z,29.20
2022-08-12T17:16:55.511Z,29.20
2022-08-12T17:20:28.866Z,29.20
2022-08-12T17:22:15.014Z,29.20
2022-08-12T17:24:50.634Z,29.20
2022-08-12T17:27:24.439Z,29.20
2022-08-12T17:30:01.453Z,29.20
2022-08-12T17:32:35.070Z,29.10
2022-08-12T17:35:21.539Z,29.10
2022-08-12T17:37:48.699Z,29.10
2022-08-12T17:40:34.454Z,29.00
2022-08-12T17:43:52.069Z,29.00
2022-08-12T17:45:59.774Z,29.00
2022-08-12T17:48:34.306Z,29.00
2022-08-12T17:51:15.351Z,28.90
2022-08-12T17:54:11.807Z,28.90
2022-08-12T17:56:33.277Z,28.80
2022-08-12T17:59:02.613Z,28.80
2022-08-12T18:01:34.571Z,28.70
2022-08-12T18:04:21.620Z,28.60
2022-08-12T18:06:51.780Z,28.50
2022-08-12T18:09:20.472Z,28.40
2022-08-12T18:12:08.212Z,28.40
2022-08-12T18:14:37.947Z,28.30
2022-08-12T18:17:08.511Z,28.20
2022-08-12T18:20:05.022Z,28.10
2022-08-12T18:22:30.622Z,28.10
2022-08-12T18:26:12.873Z,28.00
2022-08-12T18:28:16.954Z,27.90
2022-08-12T18:30:53.460Z,27.80
2022-08-12T18:33:25.976Z,27.70
2022-08-12T18:35:56.774Z,27.60
2022-08-12T18:38:25.526Z,27.50
2022-08-12T18:41:21.885Z,27.40
2022-08-12T18:44:04.003Z,27.30
2022-08-12T18:46:55.797Z,27.20
2022-08-12T18:49:33.300Z,27.10
2022-08-12T18:52:05.700Z,27.00
2022-08-12T18:54:41.436Z,26.90
2022-08-12T18:58:06.222Z,26.70
2022-08-12T19:00:13.206Z,26.70
2022-08-12T19:02:42.499Z,26.60
2022-08-12T19:05:14.310Z,26.50
2022-08-12T19:08:00.848Z,26.40
2022-08-12T19:10:30.477Z,26.30
2022-08-12T19:13:24.322Z,26.20
2022-08-12T19:15:57.618Z,26.10
2022-08-12T19:18:30.053Z,25.90
2022-08-12T19:21:11.866Z,25.90
2022-08-12T19:24:05.222Z,25.70
2022-08-12T19:26:34.972Z,25.60
2022-08-12T19:29:06.054Z,25.50
2022-08-12T19:31:58.192Z,25.50
2022-08-12T19:35:54.167Z,25.50
2022-08-12T19:37:38.678Z,25.40
2022-08-12T19:40:27.319Z,25.30
2022-08-12T19:43:13.449Z,25.20
2022-08-12T19:45:50.482Z,25.10
2022-08-12T19:48:22.833Z,25.00
2022-08-12T19:50:53.624Z,24.90
2022-08-12T19:53:24.761Z,24.80
2022-08-12T19:55:53.334Z,24.70
2022-08-12T19:58:22.124Z,24.60
2022-08-12T20:00:53.353Z,24.60
2022-08-12T20:03:38.719Z,24.60
2022-08-12T20:06:14.163Z,24.50
2022-08-12T20:08:48.681Z,24.40
2022-08-12T20:12:09.481Z,24.30
2022-08-12T20:14:18.010Z,24.20
2022-08-12T20:16:51.747Z,24.10
2022-08-12T20:19:23.324Z,24.00
2022-08-12T20:21:51.092Z,23.90
2022-08-12T20:24:19.384Z,23.90
2022-08-12T20:26:48.372Z,23.90
2022-08-12T20:29:16.618Z,23.90
2022-08-12T20:31:44.872Z,23.80
2022-08-12T20:34:12.631Z,23.70
2022-08-12T20:36:44.654Z,23.60
2022-08-12T20:39:37.221Z,23.60
2022-08-12T20:42:08.711Z,23.50
2022-08-12T20:44:39.687Z,23.40
2022-08-12T20:47:16.538Z,23.40
2022-08-12T20:49:46.752Z,23.30
2022-08-12T20:52:25.546Z,23.30
2022-08-12T20:54:58.077Z,23.20
2022-08-12T20:57:37.895Z,23.10
2022-08-12T21:00:16.250Z,23.10
2022-08-12T21:02:50.002Z,23.10
2022-08-12T21:06:09.401Z,23.10
2022-08-12T21:08:26.706Z,23.10
2022-08-12T21:10:58.924Z,23.00
2022-08-12T21:13:27.099Z,23.00
2022-08-12T21:16:00.049Z,22.90
2022-08-12T21:18:30.736Z,23.00
2022-08-12T21:20:59.232Z,22.90
2022-08-12T21:23:30.966Z,22.90
2022-08-12T21:26:06.198Z,22.80
2022-08-12T21:28:39.108Z,22.80
2022-08-12T21:32:35.065Z,22.80
2022-08-12T21:34:07.451Z,22.90
2022-08-12T21:36:40.049Z,22.90
2022-08-12T21:39:19.017Z,22.90
2022-08-12T21:41:53.132Z,22.80
2022-08-12T21:45:50.911Z,22.80
2022-08-12T21:47:22.314Z,22.70
2022-08-12T21:50:03.460Z,22.60
2022-08-12T21:52:41.105Z,22.50
2022-08-12T21:55:18.835Z,22.40
2022-08-12T21:57:54.599Z,22.40
2022-08-12T22:00:34.992Z,22.30
2022-08-12T22:04:02.256Z,22.20
2022-08-12T22:06:31.439Z,22.10
2022-08-12T22:09:16.129Z,22.10
2022-08-12T22:11:56.020Z,22.10
2022-08-12T22:14:29.100Z,22.00
2022-08-12T22:17:00.580Z,22.00
2022-08-12T22:19:28.082Z,22.00
2022-08-12T22:21:58.796Z,21.90
2022-08-12T22:24:30.988Z,21.90
2022-08-12T22:27:08.076Z,21.90
2022-08-12T22:30:08.979Z,21.80
2022-08-12T22:32:50.693Z,21.70
2022-08-12T22:35:55.533Z,21.50
2022-08-12T22:38:29.830Z,21.40
2022-08-12T22:41:02.704Z,21.40
2022-08-12T22:43:58.715Z,21.40
2022-08-12T22:46:53.242Z,21.40
2022-08-12T22:49:25.977Z,21.30
2022-08-12T22:52:08.151Z,21.40
2022-08-12T22:54:37.642Z,21.30
2022-08-12T22:57:13.357Z,21.30
2022-08-12T22:59:51.503Z,21.30
2022-08-12T23:02:30.141Z,21.30
2022-08-12T23:04:58.685Z,21.20
2022-08-12T23:07:25.738Z,21.20
2022-08-12T23:09:54.748Z,21.30
2022-08-12T23:12:46.927Z,21.20
2022-08-12T23:15:16.230Z,21.20
2022-08-12T23:17:43.530Z,21.20
2022-08-12T23:20:13.126Z,21.10
2022-08-12T23:22:41.005Z,20.90
2022-08-12T23:25:18.993Z,20.90
2022-08-12T23:28:29.979Z,20.80
2022-08-12T23:31:04.706Z,20.80
2022-08-12T23:34:02.105Z,20.80
2022-08-12T23:36:39.181Z,20.70
2022-08-12T23:40:13.221Z,20.70
2022-08-12T23:42:18.214Z,20.70
2022-08-12T23:44:44.578Z,20.60
2022-08-12T23:47:13.030Z,20.50
2022-08-12T23:49:57.395Z,20.50
2022-08-12T23:52:33.810Z,20.50
2022-08-12T23:55:24.967Z,20.50
2022-08-12T23:58:21.539Z,20.40
